Time;durP1;ratioP1;P1;durP2;ratioP2;P2;SDS_P1;SDS_P2;PMS_P1;PMS_P2;Temp;Humidity;BMP_temperature;BMP_pressure;BME280_temperature;BME280_humidity;BME280_pressure;Samples;Min_cycle;Max_cycle;Signal;HPM_P1;HPM_P2
2021/08/04 00:01:57;;;;;;;5.10;3.08;;;;;;;9.38;78.36;99525.05;1740863;80;20950;-62
2021/08/04 00:04:24;;;;;;;3.77;2.87;;;;;;;9.34;78.36;99533.06;1742294;81;20903;-61
2021/08/04 00:06:51;;;;;;;3.47;2.63;;;;;;;9.29;78.39;99531.12;1753572;81;20957;-61
2021/08/04 00:09:17;;;;;;;8.83;3.20;;;;;;;9.25;78.44;99526.51;1749776;81;21044;-61
2021/08/04 00:11:44;;;;;;;8.95;2.83;;;;;;;9.23;78.58;99526.19;1745754;81;20880;-61
2021/08/04 00:14:11;;;;;;;5.30;3.10;;;;;;;9.22;78.65;99528.41;1746685;81;20901;-61
2021/08/04 00:16:37;;;;;;;4.45;3.20;;;;;;;9.24;78.71;99536.98;1749276;81;20959;-61
2021/08/04 00:19:04;;;;;;;7.22;3.10;;;;;;;9.29;78.81;99524.60;1745816;81;21521;-61
2021/08/04 00:21:31;;;;;;;4.47;3.12;;;;;;;9.31;78.76;99533.20;1743402;81;21454;-62
2021/08/04 00:23:57;;;;;;;6.33;3.90;;;;;;;9.29;78.67;99535.86;1748823;81;20889;-61
2021/08/04 00:26:24;;;;;;;6.70;3.27;;;;;;;9.17;78.84;99524.23;1748969;81;21494;-61
2021/08/04 00:28:50;;;;;;;9.35;4.40;;;;;;;9.22;78.75;99533.63;1741451;81;20910;-61
2021/08/04 00:31:17;;;;;;;4.25;3.17;;;;;;;9.17;78.75;99529.45;1749092;81;20989;-61
2021/08/04 00:33:44;;;;;;;6.10;3.10;;;;;;;9.12;78.68;99530.11;1746037;81;21871;-61
2021/08/04 00:36:10;;;;;;;4.95;3.00;;;;;;;9.06;78.79;99521.27;1747566;81;21537;-61
2021/08/04 00:38:37;;;;;;;5.12;3.10;;;;;;;9.04;78.88;99519.64;1751313;81;21488;-61
2021/08/04 00:41:03;;;;;;;8.25;2.67;;;;;;;8.99;78.87;99517.26;1741799;81;20949;-61
2021/08/04 00:43:30;;;;;;;3.50;2.62;;;;;;;8.97;78.90;99524.28;1740932;81;20879;-61
2021/08/04 00:45:57;;;;;;;8.13;2.70;;;;;;;8.94;78.88;99524.42;1736082;81;21781;-61
2021/08/04 00:48:24;;;;;;;6.17;3.25;;;;;;;8.89;79.00;99528.98;1733448;81;20943;-61
2021/08/04 00:50:51;;;;;;;;;;;;;;;8.87;79.04;99528.19;1739276;81;20887;-61
2021/08/04 00:53:27;;;;;;;4.60;2.70;;;;;;;8.86;79.27;99526.51;1738924;81;20085;-61
2021/08/04 00:55:57;;;;;;;4.58;2.67;;;;;;;8.83;79.20;99531.85;1735972;81;20888;-61
2021/08/04 00:58:39;;;;;;;3.17;2.42;;;;;;;8.79;79.19;99525.06;1738319;81;20946;-61
2021/08/04 01:01:11;;;;;;;2.83;2.22;;;;;;;8.72;79.18;99525.34;1731993;81;20966;-62
2021/08/04 01:03:46;;;;;;;5.55;3.50;;;;;;;8.69;79.25;99520.27;1738908;81;20896;-61
2021/08/04 01:06:18;;;;;;;3.95;3.05;;;;;;;8.66;79.37;99516.49;1727407;81;20882;-61
2021/08/04 01:08:50;;;;;;;6.40;3.62;;;;;;;8.68;79.38;99521.19;1736676;81;20942;-61
2021/08/04 01:11:19;;;;;;;5.50;3.20;;;;;;;8.71;79.43;99518.45;1736256;81;21046;-61
2021/08/04 01:13:48;;;;;;;7.20;3.00;;;;;;;8.74;79.50;99523.52;1732047;81;21450;-61
2021/08/04 01:16:28;;;;;;;7.20;3.20;;;;;;;8.77;79.50;99519.11;1733429;81;20922;-61
2021/08/04 01:19:11;;;;;;;4.75;3.05;;;;;;;8.80;79.49;99529.38;1729035;81;20921;-61
2021/08/04 01:21:58;;;;;;;5.28;3.37;;;;;;;8.77;79.30;99524.31;1726261;83;20909;-61
2021/08/04 01:24:33;;;;;;;4.60;2.90;;;;;;;8.68;79.36;99522.48;1724877;81;21070;-61
2021/08/04 01:27:00;;;;;;;4.80;2.98;;;;;;;8.62;79.38;99520.13;1741425;81;20934;-61
2021/08/04 01:29:28;;;;;;;6.87;3.05;;;;;;;8.57;79.50;99518.20;1724621;82;20939;-61
2021/08/04 01:31:59;;;;;;;3.10;2.42;;;;;;;8.55;79.48;99518.70;1734291;81;20867;-61
2021/08/04 01:34:27;;;;;;;6.47;2.60;;;;;;;8.53;79.53;99519.22;1726214;81;21416;-61
2021/08/04 01:36:56;;;;;;;4.58;2.70;;;;;;;8.53;79.63;99519.22;1723176;82;21045;-61
2021/08/04 01:39:23;;;;;;;4.12;2.70;;;;;;;8.55;79.68;99513.50;1725971;82;21029;-61
2021/08/04 01:41:52;;;;;;;5.67;3.02;;;;;;;8.60;79.73;99518.48;1745811;81;20894;-61
2021/08/04 01:44:19;;;;;;;5.00;2.90;;;;;;;8.60;79.75;99515.89;1758752;80;20937;-61
2021/08/04 01:46:47;;;;;;;5.67;2.90;;;;;;;8.58;79.74;99514.67;1752216;81;26942;-61
2021/08/04 01:49:15;;;;;;;4.50;2.80;;;;;;;8.58;79.80;99515.97;1748611;81;21107;-61
2021/08/04 01:51:44;;;;;;;6.00;3.27;;;;;;;8.59;79.77;99517.66;1747659;81;20922;-61
2021/08/04 01:54:12;;;;;;;6.08;2.67;;;;;;;8.59;79.81;99509.00;1747876;81;20903;-61
2021/08/04 01:56:40;;;;;;;4.50;2.90;;;;;;;8.58;79.70;99509.47;1746482;81;20948;-61
2021/08/04 01:59:06;;;;;;;;;;;;;;;8.56;79.74;99511.74;1766996;80;20993;-61
2021/08/04 02:01:37;;;;;;;4.30;2.92;;;;;;;8.51;79.74;99506.29;1759326;80;21031;-61
2021/08/04 02:04:05;;;;;;;6.08;3.15;;;;;;;8.45;79.67;99510.89;1762135;80;20896;-61
2021/08/04 02:06:54;;;;;;;4.78;2.58;;;;;;;8.42;79.69;99508.41;1761636;80;20920;-61
2021/08/04 02:09:29;;;;;;;4.92;2.17;;;;;;;8.37;79.70;99510.32;1749183;81;20926;-61
2021/08/04 02:12:03;;;;;;;7.12;2.52;;;;;;;8.25;79.69;99511.22;1747315;80;20934;-61
2021/08/04 02:15:06;;;;;;;6.75;2.35;;;;;;;8.19;79.76;99517.14;1733890;81;21068;-61
2021/08/04 02:17:47;;;;;;;5.03;2.17;;;;;;;8.12;79.79;99513.92;1749931;81;20896;-61
2021/08/04 02:20:34;;;;;;;4.03;2.27;;;;;;;8.05;79.87;99522.89;1746631;81;20948;-61
2021/08/04 02:23:24;;;;;;;5.12;2.95;;;;;;;8.01;79.95;99516.11;1747938;81;21528;-61
2021/08/04 02:25:53;;;;;;;5.25;2.70;;;;;;;8.01;80.11;99510.91;1736566;80;20963;-61
2021/08/04 02:28:23;;;;;;;4.50;2.85;;;;;;;8.03;80.23;99513.00;1737498;81;21080;-61
2021/08/04 02:30:52;;;;;;;5.42;2.70;;;;;;;8.03;80.15;99516.91;1735153;81;21467;-61
2021/08/04 02:33:20;;;;;;;3.92;2.85;;;;;;;7.99;80.22;99507.09;1742786;81;20883;-61
2021/08/04 02:35:47;;;;;;;;;;;;;;;7.99;80.29;99507.55;1738998;81;20912;-61
2021/08/04 02:38:15;;;;;;;5.60;4.10;;;;;;;7.99;80.41;99516.19;1736138;81;20121;-61
2021/08/04 02:40:42;;;;;;;4.25;3.10;;;;;;;8.03;80.41;99514.30;1739424;81;21043;-61
2021/08/04 02:43:10;;;;;;;3.52;2.62;;;;;;;8.05;80.38;99513.80;1731928;81;20920;-61
2021/08/04 02:45:37;;;;;;;5.78;3.17;;;;;;;8.08;80.45;99514.97;1733056;81;20948;-61
2021/08/04 02:48:05;;;;;;;5.08;2.87;;;;;;;8.12;80.48;99515.22;1733771;81;20954;-61
2021/08/04 02:50:36;;;;;;;5.20;2.80;;;;;;;8.14;80.41;99516.02;1741948;81;21476;-61
2021/08/04 02:53:04;;;;;;;7.15;3.17;;;;;;;8.14;80.31;99519.92;1720241;81;21282;-61
2021/08/04 02:55:31;;;;;;;6.45;2.60;;;;;;;8.14;80.36;99514.72;1745567;80;20945;-61
2021/08/04 02:57:58;;;;;;;3.30;2.50;;;;;;;8.17;80.43;99514.59;1750316;81;20883;-61
2021/08/04 03:00:24;;;;;;;6.90;3.20;;;;;;;8.20;80.47;99514.45;1743387;81;20903;-61
2021/08/04 03:02:51;;;;;;;5.65;3.33;;;;;;;8.21;80.31;99513.57;1744110;81;20978;-61
2021/08/04 03:05:18;;;;;;;3.30;2.90;;;;;;;8.17;80.24;99511.98;1744008;80;22092;-61
2021/08/04 03:07:44;;;;;;;3.75;3.02;;;;;;;8.17;80.36;99510.69;1740427;81;21424;-61
2021/08/04 03:10:12;;;;;;;10.30;3.10;;;;;;;8.20;80.35;99514.45;1742423;81;20950;-61
2021/08/04 03:12:38;;;;;;;4.08;2.40;;;;;;;8.18;80.34;99513.70;1742701;81;20922;-61
2021/08/04 03:15:06;;;;;;;5.60;2.80;;;;;;;8.18;80.45;99513.70;1741105;81;20966;-61
2021/08/04 03:17:32;;;;;;;4.37;2.77;;;;;;;8.19;80.35;99512.78;1742624;81;21865;-61
2021/08/04 03:19:59;;;;;;;6.20;3.05;;;;;;;8.17;80.32;99514.59;1741060;81;21866;-61
2021/08/04 03:22:25;;;;;;;8.58;3.02;;;;;;;8.13;80.32;99515.64;1746745;81;21472;-61
2021/08/04 03:24:52;;;;;;;9.30;3.52;;;;;;;8.14;80.35;99512.12;1746017;81;20892;-61
2021/08/04 03:27:19;;;;;;;6.37;2.72;;;;;;;8.18;80.40;99517.60;1743209;81;20950;-61
2021/08/04 03:29:45;;;;;;;7.90;2.77;;;;;;;8.24;80.40;99517.34;1754219;81;21022;-61
2021/08/04 03:32:12;;;;;;;4.08;2.50;;;;;;;8.61;80.77;99511.94;1741589;81;20928;-61
2021/08/04 03:34:38;;;;;;;12.15;3.12;;;;;;;9.22;80.61;99513.63;1743945;81;21438;-61
2021/08/04 03:37:05;;;;;;;6.17;2.47;;;;;;;9.88;80.34;99514.46;1745176;81;21658;-61
2021/08/04 03:39:31;;;;;;;6.70;3.12;;;;;;;10.56;79.94;99512.48;1742304;81;20908;-61
2021/08/04 03:41:58;;;;;;;5.30;3.00;;;;;;;11.03;79.32;99511.81;1738303;81;21048;-61
2021/08/04 03:44:25;;;;;;;7.20;2.60;;;;;;;11.59;79.31;99510.55;1732100;81;21059;-62
2021/08/04 03:46:51;;;;;;;9.10;2.40;;;;;;;12.80;78.41;99517.20;1734002;82;21414;-62
2021/08/04 03:49:18;;;;;;;7.33;3.17;;;;;;;12.80;78.41;99517.20;1732435;82;21501;-62
2021/08/04 03:51:44;;;;;;;7.67;3.60;;;;;;;13.47;78.36;99519.70;1731868;82;20939;-62
2021/08/04 03:54:11;;;;;;;9.03;3.50;;;;;;;14.00;77.76;99516.77;1739674;82;21124;-61
2021/08/04 03:56:38;;;;;;;6.90;3.25;;;;;;;14.55;77.69;99517.08;1736953;82;20937;-62
2021/08/04 03:59:04;;;;;;;13.32;7.78;;;;;;;15.43;78.42;99511.92;1726387;81;21397;-62
2021/08/04 04:01:31;;;;;;;13.50;7.67;;;;;;;16.44;78.40;99514.73;1731234;81;21390;-62
2021/08/04 04:03:58;;;;;;;12.58;5.83;;;;;;;17.18;77.28;99513.47;1728365;82;21009;-62
2021/08/04 04:06:24;;;;;;;8.80;5.10;;;;;;;17.59;76.13;99513.34;1730446;82;22139;-62
2021/08/04 04:08:51;;;;;;;7.62;4.10;;;;;;;17.89;75.56;99511.86;1731793;82;21497;-62
2021/08/04 04:11:18;;;;;;;5.33;3.10;;;;;;;18.24;74.85;99516.08;1733688;81;20899;-62
2021/08/04 04:13:44;;;;;;;6.78;3.35;;;;;;;18.54;74.46;99512.22;1732076;82;20915;-63
2021/08/04 04:16:11;;;;;;;12.88;3.10;;;;;;;18.86;73.99;99512.65;1729465;82;20959;-62
2021/08/04 04:18:37;;;;;;;8.70;3.00;;;;;;;19.10;73.56;99510.19;1732328;82;21046;-62
2021/08/04 04:21:06;;;;;;;8.88;2.85;;;;;;;19.47;73.45;99505.69;1731138;82;20907;-63
2021/08/04 04:23:33;;;;;;;6.83;3.10;;;;;;;19.77;73.03;99513.58;1737292;81;20931;-62
2021/08/04 04:26:02;;;;;;;5.90;2.58;;;;;;;20.19;72.91;99508.05;1732422;81;20914;-63
2021/08/04 04:28:28;;;;;;;8.93;3.05;;;;;;;20.57;72.30;99515.69;1729333;81;21502;-63
2021/08/04 04:30:54;;;;;;;5.83;2.77;;;;;;;20.96;71.71;99520.92;1732992;82;21038;-63
2021/08/04 04:33:21;;;;;;;5.22;2.12;;;;;;;21.28;71.26;99515.70;1728301;82;20959;-63
2021/08/04 04:35:47;;;;;;;7.17;2.98;;;;;;;21.51;71.04;99517.05;1729328;82;20859;-63
2021/08/04 04:38:15;;;;;;;12.25;3.08;;;;;;;21.75;70.60;99515.64;1726479;82;21585;-63
2021/08/04 04:40:41;;;;;;;6.47;2.55;;;;;;;22.00;70.25;99522.89;1727721;82;21453;-63
2021/08/04 04:43:07;;;;;;;;;;;;;;;22.39;69.97;99527.95;1752349;81;21068;-63
2021/08/04 04:45:34;;;;;;;;;;;;;;;22.81;69.50;99523.78;1756429;81;20118;-63
2021/08/04 04:48:00;;;;;;;;;;;;;;;23.14;68.73;99523.52;1756540;81;20477;-63
2021/08/04 04:50:26;;;;;;;9.88;3.33;;;;;;;23.24;68.58;99525.05;1748040;81;20084;-63
2021/08/04 04:52:53;;;;;;;;;;;;;;;23.44;68.51;99528.34;1751088;81;20946;-63
2021/08/04 04:55:19;;;;;;;13.08;3.17;;;;;;;23.73;68.19;99527.64;1758350;81;21966;-63
2021/08/04 04:57:46;;;;;;;;;;;;;;;24.03;67.46;99522.20;1754129;81;20931;-63
2021/08/04 05:00:13;;;;;;;6.62;3.05;;;;;;;24.25;66.72;99522.06;1750258;81;20107;-63
2021/08/04 05:02:41;;;;;;;7.28;2.90;;;;;;;24.44;66.58;99522.28;1752159;81;20894;-63
2021/08/04 05:05:09;;;;;;;10.00;2.83;;;;;;;24.77;66.66;99530.61;1754360;81;21418;-63
2021/08/04 05:07:36;;;;;;;8.65;3.00;;;;;;;25.10;65.99;99530.55;1746942;81;21064;-63
2021/08/04 05:10:03;;;;;;;8.45;2.85;;;;;;;25.26;65.48;99531.53;1745574;81;20907;-63
2021/08/04 05:12:30;;;;;;;6.83;2.83;;;;;;;25.44;65.38;99526.81;1752357;81;20910;-63
2021/08/04 05:14:56;;;;;;;8.88;2.70;;;;;;;25.70;65.13;99535.05;1752415;81;20912;-63
2021/08/04 05:17:23;;;;;;;8.55;2.65;;;;;;;25.99;65.45;99524.56;1751007;81;21363;-63
2021/08/04 05:19:49;;;;;;;5.47;2.30;;;;;;;26.36;64.29;99524.81;1749401;81;21484;-63
2021/08/04 05:22:16;;;;;;;8.03;2.67;;;;;;;26.53;63.47;99520.50;1753003;81;20888;-63
2021/08/04 05:24:43;;;;;;;8.63;2.30;;;;;;;26.66;63.00;99522.55;1748430;81;20886;-63
2021/08/04 05:27:09;;;;;;;3.85;2.00;;;;;;;26.66;62.57;99519.05;1747801;81;20911;-63
2021/08/04 05:29:36;;;;;;;6.03;2.02;;;;;;;26.89;62.07;99521.19;1750891;81;21448;-63
2021/08/04 05:32:04;;;;;;;6.58;2.20;;;;;;;26.87;61.72;99521.86;1748770;81;20984;-63
2021/08/04 05:34:30;;;;;;;12.05;2.75;;;;;;;27.09;61.41;99518.80;1754633;81;20942;-63
2021/08/04 05:36:57;;;;;;;6.05;2.40;;;;;;;27.17;61.18;99514.72;1753530;81;21420;-63
2021/08/04 05:39:23;;;;;;;6.47;1.98;;;;;;;27.30;60.93;99513.22;1760031;81;21547;-63
2021/08/04 05:41:50;;;;;;;4.03;2.00;;;;;;;27.40;60.37;99509.25;1747630;81;20918;-63
2021/08/04 05:44:17;;;;;;;3.12;1.77;;;;;;;27.60;59.84;99511.35;1731756;82;21471;-63
2021/08/04 05:46:43;;;;;;;6.80;2.02;;;;;;;27.78;59.46;99520.31;1732065;81;20879;-63
2021/08/04 05:49:10;;;;;;;2.95;1.67;;;;;;;27.92;59.08;99519.98;1731842;82;20934;-63
2021/08/04 05:51:36;;;;;;;7.05;2.50;;;;;;;28.20;58.91;99516.88;1734118;82;20914;-63
2021/08/04 05:54:03;;;;;;;8.50;1.98;;;;;;;28.34;57.88;99517.34;1732588;82;21441;-63
2021/08/04 05:56:29;;;;;;;9.70;2.20;;;;;;;28.54;58.33;99518.06;1736559;82;21465;-63
2021/08/04 05:58:56;;;;;;;6.58;1.72;;;;;;;28.80;56.94;99513.92;1740053;81;20913;-63
2021/08/04 06:01:23;;;;;;;3.65;1.77;;;;;;;28.76;56.63;99512.97;1737649;82;20982;-63
2021/08/04 06:03:49;;;;;;;3.90;1.72;;;;;;;28.82;56.42;99515.88;1740418;82;20950;-63
2021/08/04 06:06:16;;;;;;;4.92;2.10;;;;;;;28.84;55.63;99509.28;1731470;82;21521;-63
2021/08/04 06:08:42;;;;;;;3.92;1.90;;;;;;;28.72;55.05;99514.38;1738911;82;21486;-63
2021/08/04 06:11:11;;;;;;;3.12;1.32;;;;;;;28.64;54.82;99506.45;1734247;81;21199;-63
2021/08/04 06:13:37;;;;;;;2.83;1.25;;;;;;;28.64;54.63;99512.34;1734485;81;20919;-63
2021/08/04 06:16:04;;;;;;;2.05;1.20;;;;;;;28.67;53.91;99514.13;1739020;82;20951;-63
2021/08/04 06:18:31;;;;;;;2.67;1.22;;;;;;;28.62;53.81;99508.50;1728852;82;20929;-64
2021/08/04 06:20:57;;;;;;;3.52;1.27;;;;;;;28.78;53.56;99510.90;1727351;82;21013;-63
2021/08/04 06:23:24;;;;;;;6.35;1.40;;;;;;;28.55;52.70;99508.45;1725341;83;20906;-63
2021/08/04 06:25:51;;;;;;;4.35;0.90;;;;;;;28.02;51.17;99501.73;1726081;82;21984;-64
2021/08/04 06:28:17;;;;;;;2.10;1.00;;;;;;;27.54;51.68;99505.41;1735843;82;20903;-63
2021/08/04 06:30:44;;;;;;;1.40;0.72;;;;;;;27.40;51.77;99503.89;1734430;81;21389;-63
2021/08/04 06:33:10;;;;;;;1.65;0.98;;;;;;;27.32;51.29;99503.98;1739299;81;21867;-63
2021/08/04 06:35:37;;;;;;;2.20;0.95;;;;;;;27.20;50.43;99508.16;1738700;81;20869;-63
2021/08/04 06:38:04;;;;;;;1.30;0.80;;;;;;;26.81;49.59;99513.23;1737097;81;21053;-63
2021/08/04 06:40:30;;;;;;;1.52;0.88;;;;;;;26.56;49.80;99515.30;1735941;81;20918;-63
2021/08/04 06:42:57;;;;;;;1.30;0.70;;;;;;;26.05;49.51;99515.83;1747555;81;20981;-63
2021/08/04 06:45:24;;;;;;;1.15;0.57;;;;;;;25.66;48.71;99523.36;1741234;81;21283;-64
2021/08/04 06:47:50;;;;;;;1.87;0.82;;;;;;;25.50;48.57;99528.78;1756637;80;20948;-65
2021/08/04 06:50:17;;;;;;;1.37;0.82;;;;;;;24.90;47.84;99518.56;1762124;80;20936;-65
2021/08/04 06:52:43;;;;;;;1.32;0.70;;;;;;;24.94;49.07;99521.23;1767477;80;20930;-64
2021/08/04 06:55:11;;;;;;;2.12;0.93;;;;;;;25.04;49.15;99523.23;1761472;79;20959;-64
2021/08/04 06:57:37;;;;;;;10.63;1.65;;;;;;;25.25;49.26;99517.86;1765391;80;21032;-64
2021/08/04 07:00:05;;;;;;;1.32;0.60;;;;;;;25.67;49.19;99525.02;1766924;80;21591;-64
2021/08/04 07:02:32;;;;;;;2.02;0.85;;;;;;;25.45;46.37;99518.59;1739801;80;21433;-64
2021/08/04 07:04:58;;;;;;;1.40;0.88;;;;;;;24.67;47.06;99525.94;1741655;81;21684;-64
2021/08/04 07:07:27;;;;;;;50.98;6.20;;;;;;;24.49;47.62;99526.63;1742670;80;21035;-64
2021/08/04 07:09:53;;;;;;;8.40;0.90;;;;;;;24.43;47.75;99527.27;1745641;81;21237;-64
2021/08/04 07:12:22;;;;;;;31.82;5.85;;;;;;;24.69;47.63;99533.28;1742787;80;20924;-64
2021/08/04 07:14:51;;;;;;;1.85;0.85;;;;;;;24.82;47.95;99535.45;1750442;81;21886;-63
2021/08/04 07:17:17;;;;;;;1.25;0.68;;;;;;;24.79;44.40;99531.28;1746643;81;20961;-64
2021/08/04 07:19:44;;;;;;;1.35;0.80;;;;;;;24.20;43.31;99527.91;1764170;80;20951;-64
2021/08/04 07:22:11;;;;;;;2.05;1.10;;;;;;;23.54;46.21;99526.87;1741697;80;21001;-64
2021/08/04 07:24:37;;;;;;;1.25;1.00;;;;;;;23.40;45.65;99526.97;1743738;81;20887;-64
2021/08/04 07:27:04;;;;;;;2.27;1.00;;;;;;;23.47;47.17;99533.85;1765424;79;21480;-64
2021/08/04 07:29:31;;;;;;;5.28;1.07;;;;;;;23.83;46.97;99531.81;1764669;80;20946;-64
2021/08/04 07:31:57;;;;;;;;;;;;;;;23.80;46.70;99533.98;1768847;80;21468;-63
2021/08/04 07:34:24;;;;;;;;;;;;;;;23.25;45.92;99532.58;1752586;80;20980;-64
2021/08/04 07:36:52;;;;;;;1.37;1.17;;;;;;;22.68;46.28;99534.82;1754618;80;20128;-63
2021/08/04 07:39:19;;;;;;;3.22;1.00;;;;;;;22.07;46.31;99538.59;1764646;80;20907;-64
2021/08/04 07:41:46;;;;;;;2.75;1.32;;;;;;;21.75;46.99;99536.91;1765947;80;20960;-63
2021/08/04 07:44:13;;;;;;;;;;;;;;;21.36;47.04;99534.41;1768688;80;20951;-62
2021/08/04 07:46:39;;;;;;;0.95;0.80;;;;;;;21.17;46.70;99537.49;1769870;79;22089;-63
2021/08/04 07:49:06;;;;;;;1.15;0.90;;;;;;;20.92;47.51;99536.77;1768715;78;21451;-63
2021/08/04 07:51:34;;;;;;;1.65;1.05;;;;;;;20.84;47.25;99541.95;1765820;80;20895;-63
2021/08/04 07:54:01;;;;;;;3.12;1.37;;;;;;;20.63;47.70;99536.33;1753524;80;21441;-64
2021/08/04 07:56:27;;;;;;;9.60;1.87;;;;;;;21.05;48.84;99529.34;1747618;80;21512;-64
2021/08/04 07:58:55;;;;;;;12.37;2.92;;;;;;;21.05;48.84;99529.34;1768989;80;21247;-64
2021/08/04 08:01:22;;;;;;;21.97;1.92;;;;;;;21.35;48.54;99534.06;1769602;80;20918;-65
2021/08/04 08:03:50;;;;;;;1.98;1.10;;;;;;;21.62;49.13;99535.44;1764379;80;20909;-64
2021/08/04 08:06:16;;;;;;;0.98;0.70;;;;;;;21.79;48.65;99531.16;1741983;80;20893;-64
2021/08/04 08:08:43;;;;;;;3.05;1.10;;;;;;;21.63;47.96;99530.47;1749036;80;20976;-64
2021/08/04 08:11:09;;;;;;;1.32;0.93;;;;;;;21.15;47.13;99538.13;1744884;80;21858;-64
2021/08/04 08:13:36;;;;;;;2.85;1.20;;;;;;;20.78;48.23;99528.30;1753322;81;21442;-64
2021/08/04 08:16:04;;;;;;;2.08;0.90;;;;;;;20.71;48.28;99535.14;1758012;81;20942;-64
2021/08/04 08:18:30;;;;;;;2.45;1.02;;;;;;;20.63;48.13;99536.33;1742370;80;20887;-64
2021/08/04 08:20:57;;;;;;;2.02;0.90;;;;;;;20.67;48.14;99539.06;1749158;80;20909;-64
2021/08/04 08:23:23;;;;;;;1.40;0.93;;;;;;;20.40;46.84;99541.56;1744970;80;21078;-64
2021/08/04 08:25:50;;;;;;;1.55;0.98;;;;;;;20.01;47.85;99542.86;1747325;80;20894;-64
2021/08/04 08:28:16;;;;;;;1.57;1.00;;;;;;;19.99;47.58;99540.33;1765559;80;20896;-64
2021/08/04 08:30:44;;;;;;;2.85;1.10;;;;;;;19.89;48.40;99542.97;1769279;80;20958;-64
2021/08/04 08:33:11;;;;;;;1.77;0.90;;;;;;;19.99;48.29;99546.13;1765516;80;20934;-64
2021/08/04 08:35:37;;;;;;;1.45;1.12;;;;;;;20.15;48.64;99543.78;1767123;80;21036;-64
2021/08/04 08:38:04;;;;;;;1.95;1.00;;;;;;;20.43;48.28;99538.63;1744579;80;20966;-63
2021/08/04 08:40:31;;;;;;;;;;;;;;;20.48;48.42;99539.88;1750974;81;20852;-64
2021/08/04 08:42:57;;;;;;;2.90;1.30;;;;;;;20.38;47.95;99538.20;1769707;80;20465;-64
2021/08/04 08:45:24;;;;;;;59.60;9.00;;;;;;;20.26;48.94;99542.81;1751883;80;21644;-64
2021/08/04 08:47:51;;;;;;;2.92;1.45;;;;;;;20.53;49.33;99542.98;1754192;80;21328;-64
2021/08/04 08:50:25;;;;;;;1.30;0.88;;;;;;;20.77;48.50;99537.22;1752275;80;20883;-64
2021/08/04 08:52:49;;;;;;;1.52;0.88;;;;;;;20.37;47.71;99539.19;1756752;81;20941;-64
2021/08/04 08:55:15;;;;;;;1.65;0.90;;;;;;;20.22;48.11;99542.27;1778051;80;20939;-64
2021/08/04 08:57:43;;;;;;;1.05;0.90;;;;;;;20.17;48.42;99543.66;1773385;80;20874;-64
2021/08/04 09:00:10;;;;;;;;;;;;;;;20.35;47.89;99544.63;1754540;80;22400;-63
2021/08/04 09:02:36;;;;;;;2.47;1.12;;;;;;;20.56;48.58;99541.88;1753630;80;20160;-64
2021/08/04 09:05:07;;;;;;;1.57;1.20;;;;;;;20.94;48.12;99542.78;1751263;81;20963;-64
2021/08/04 09:07:38;;;;;;;5.33;1.55;;;;;;;21.04;48.64;99542.27;1748998;81;20895;-64
2021/08/04 09:10:30;;;;;;;2.62;1.30;;;;;;;21.37;49.11;99540.08;1745477;81;20955;-64
2021/08/04 09:13:00;;;;;;;3.30;1.20;;;;;;;21.02;47.37;99545.55;1754399;81;21101;-64
2021/08/04 09:15:39;;;;;;;2.65;1.20;;;;;;;20.53;47.98;99542.16;1747010;81;21434;-64
2021/08/04 09:18:12;;;;;;;4.72;1.22;;;;;;;20.71;48.60;99540.45;1755955;81;21433;-64
2021/08/04 09:20:54;;;;;;;1.30;0.90;;;;;;;21.00;48.79;99539.55;1751680;81;20961;-64
2021/08/04 09:23:27;;;;;;;1.47;0.90;;;;;;;21.04;47.18;99548.08;1754896;81;20977;-64
2021/08/04 09:26:14;;;;;;;2.30;1.12;;;;;;;21.02;48.13;99540.24;1755948;81;21839;-64
2021/08/04 09:29:05;;;;;;;1.42;0.98;;;;;;;21.50;48.51;99539.27;1737773;81;28068;-64
2021/08/04 09:31:54;;;;;;;2.85;2.00;;;;;;;21.64;48.03;99540.09;1752666;81;21451;-64
2021/08/04 09:34:37;;;;;;;1.87;1.50;;;;;;;22.10;48.97;99534.30;1745986;81;20949;-64
2021/08/04 09:37:08;;;;;;;1.75;1.15;;;;;;;22.83;49.06;99526.63;1751818;81;20906;-64
2021/08/04 09:39:37;;;;;;;7.50;1.50;;;;;;;23.34;48.79;99523.63;1749278;81;21272;-64
2021/08/04 09:42:05;;;;;;;1.75;0.90;;;;;;;23.84;48.94;99522.84;1751479;81;20924;-64
2021/08/04 09:44:32;;;;;;;2.20;1.32;;;;;;;24.25;48.53;99522.89;1733837;81;20910;-64
2021/08/04 09:47:11;;;;;;;1.62;1.17;;;;;;;24.45;48.08;99519.94;1727261;81;21001;-65
2021/08/04 09:49:40;;;;;;;3.77;1.32;;;;;;;24.65;47.69;99520.45;1731308;81;20949;-64
2021/08/04 09:52:11;;;;;;;3.17;1.30;;;;;;;24.89;47.75;99516.91;1706235;81;21452;-64
2021/08/04 09:54:41;;;;;;;6.83;1.42;;;;;;;24.90;46.82;99511.88;1731350;81;20955;-65
2021/08/04 09:57:09;;;;;;;2.08;1.20;;;;;;;24.24;46.07;99521.23;1730517;82;21474;-64
2021/08/04 09:59:36;;;;;;;1.67;1.20;;;;;;;24.01;46.01;99517.55;1730532;81;20954;-65
2021/08/04 10:02:05;;;;;;;2.92;1.05;;;;;;;24.13;46.52;99518.39;1699090;82;37235;-64
2021/08/04 10:04:32;;;;;;;2.08;1.02;;;;;;;23.90;44.12;99516.02;1730744;82;21117;-64
2021/08/04 10:07:08;;;;;;;2.10;1.05;;;;;;;22.61;43.69;99524.47;1731015;82;20922;-64
2021/08/04 10:09:37;;;;;;;1.82;1.12;;;;;;;22.07;45.29;99526.63;1733049;82;20956;-64
2021/08/04 10:12:07;;;;;;;0.90;0.82;;;;;;;22.15;45.39;99527.68;1733098;82;20958;-64
2021/08/04 10:14:36;;;;;;;2.08;1.05;;;;;;;21.57;44.74;99532.39;1701633;82;21602;-64
2021/08/04 10:17:05;;;;;;;1.62;1.20;;;;;;;21.31;45.16;99523.38;1731040;82;21027;-64
2021/08/04 10:19:32;;;;;;;3.25;1.12;;;;;;;21.77;46.36;99527.80;1730898;82;21551;-65
2021/08/04 10:22:00;;;;;;;;;;;;;;;22.42;45.82;99527.63;1730916;82;21013;-65
2021/08/04 10:24:27;;;;;;;2.75;1.87;;;;;;;22.23;44.25;99527.79;1729800;81;20136;-65
2021/08/04 10:26:55;;;;;;;1.92;1.12;;;;;;;22.27;45.45;99526.52;1731806;81;20944;-65
2021/08/04 10:29:22;;;;;;;1.65;1.07;;;;;;;22.52;45.40;99515.09;1729722;81;21023;-64
2021/08/04 10:31:49;;;;;;;1.98;1.15;;;;;;;22.61;45.28;99515.16;1727044;81;20890;-64
2021/08/04 10:34:16;;;;;;;;;;;;;;;22.76;45.46;99522.41;1735267;82;21491;-64
2021/08/04 10:36:42;;;;;;;1.57;1.12;;;;;;;22.66;44.98;99523.48;1733436;82;20116;-65
2021/08/04 10:39:15;;;;;;;1.98;1.12;;;;;;;21.97;44.98;99521.03;1727979;82;20973;-64
2021/08/04 10:42:07;;;;;;;1.47;1.10;;;;;;;21.49;45.23;99524.31;1733393;82;21091;-64
2021/08/04 10:44:35;;;;;;;1.47;0.90;;;;;;;21.23;45.52;99519.65;1696823;83;20979;-64
2021/08/04 10:47:04;;;;;;;1.32;1.12;;;;;;;21.07;45.71;99524.73;1719875;82;20918;-64
2021/08/04 10:49:35;;;;;;;1.70;1.07;;;;;;;21.21;45.76;99521.60;1715231;83;20954;-64
2021/08/04 10:52:10;;;;;;;2.05;1.20;;;;;;;21.30;45.63;99517.73;1715521;82;20943;-64
2021/08/04 10:54:41;;;;;;;2.35;1.42;;;;;;;21.48;46.02;99517.81;1752942;80;21973;-64
2021/08/04 10:57:09;;;;;;;3.00;1.25;;;;;;;21.49;45.38;99520.83;1743805;80;21416;-64
2021/08/04 10:59:37;;;;;;;1.37;1.10;;;;;;;21.67;46.05;99509.23;1742469;80;20938;-64
2021/08/04 11:02:09;;;;;;;2.52;1.32;;;;;;;22.12;46.25;99517.71;1747461;80;20914;-63
2021/08/04 11:04:43;;;;;;;1.95;1.20;;;;;;;22.32;44.80;99513.57;1749369;80;20894;-64
2021/08/04 11:07:13;;;;;;;1.37;1.10;;;;;;;22.00;44.80;99519.41;1745318;80;21139;-64
2021/08/04 11:09:46;;;;;;;3.52;1.45;;;;;;;22.10;45.30;99514.36;1738029;80;20885;-64
2021/08/04 11:12:29;;;;;;;1.87;1.12;;;;;;;22.24;45.38;99511.70;1749001;80;21531;-64
2021/08/04 11:14:59;;;;;;;44.77;6.85;;;;;;;22.68;46.25;99508.21;1742325;80;20894;-64
2021/08/04 11:17:29;;;;;;;6.97;2.20;;;;;;;23.09;45.87;99504.52;1743375;80;20954;-64
2021/08/04 11:20:09;;;;;;;9.73;2.00;;;;;;;23.16;45.18;99510.86;1727490;78;20998;-64
2021/08/04 11:22:41;;;;;;;2.60;1.30;;;;;;;22.89;44.76;99510.53;1806864;78;20930;-64
2021/08/04 11:25:15;;;;;;;2.35;1.22;;;;;;;22.90;45.13;99505.03;1802759;78;21509;-64
2021/08/04 11:27:49;;;;;;;1.75;1.25;;;;;;;22.81;45.23;99492.67;1787710;78;20911;-64
2021/08/04 11:30:41;;;;;;;1.90;1.50;;;;;;;23.12;45.78;99498.37;1801156;78;20880;-64
2021/08/04 11:33:22;;;;;;;5.97;1.20;;;;;;;23.62;45.96;99504.75;1801667;78;21039;-65
2021/08/04 11:36:11;;;;;;;2.98;1.57;;;;;;;24.21;45.28;99492.23;1796376;78;20859;-63
2021/08/04 11:38:48;;;;;;;8.35;1.52;;;;;;;24.02;44.66;99504.53;1803981;78;21433;-64
2021/08/04 11:41:36;;;;;;;3.15;1.27;;;;;;;23.37;44.17;99504.65;1800843;78;20892;-64
2021/08/04 11:44:20;;;;;;;4.92;1.40;;;;;;;22.78;44.53;99507.63;1768193;78;20908;-64
2021/08/04 11:47:06;;;;;;;2.12;1.22;;;;;;;22.18;44.40;99510.12;1802113;78;21104;-63
2021/08/04 11:49:46;;;;;;;2.37;1.00;;;;;;;21.64;45.05;99521.50;1806736;78;21399;-63